Portada
METAR-TAF:

METAR-TAF

Aeropuertos :

Aeropuerto Internacional de Qingdao-Liuting

Qingdao, China

latitud: 36-04N, longitud: 120-20E, altitud: 77 m

Observación

El informe se hizo hace 1 hora y 6 minutos, a las 06:00 UTC
Viento 14 kt del sur
Temperatura 32°C
Humedad 24%
Presión 1008 hPa
Visibilidad 10 km o más
sin nubes por debajo de 1500 m y sin presencia de cumulonimbus.

METAR: ZSQD 240600Z 18007MPS CAVOK 32/09 Q1008 NOSIG

Hora: 15:06 (07:06 UTC)

Pronóstico

El informe se hizo hace 4 horas y 0 minutos, a las 03:06 UTC
Pronóstico válido del 24 a las 06 UTC al 25 a las 06 UTC
Viento 12 kt del sur
Visibilidad 10 km o más
sin nubes por debajo de 1500 m y sin presencia de cumulonimbus.

TAF: ZSQD 240306Z 2406/2506 18006MPS CAVOK TX35/2407Z TN20/2421Z

Observaciones y pronósticos meteorológicos de más de 4000 aeropuertos (mensajes METAR y TAF).

Los puntos amarillos y rojos representan las estaciones disponibles.

Ponga el ratón en el punto deseado para ver el nombre de la estación.

Haga clic para ver las observaciones y los pronósticos meteorológicos.

Para cambiar el mapa : haga clic en los botones verdes con una cruz de color negro para hacer un zoom, en el botón verde con un guión para alejar o en las flechas verdes para mapas adyacentes.


METAR-TAF: